sensor_id;sensor_type;location;lat;lon;timestamp;temperature;humidity
20204;DHT22;10261;49.010;12.034;2023-05-10T00:01:01;14.50;99.90
20204;DHT22;10261;49.010;12.034;2023-05-10T00:02:05;14.50;99.90
20204;DHT22;10261;49.010;12.034;2023-05-10T00:03:07;14.50;99.90
20204;DHT22;10261;49.010;12.034;2023-05-10T00:04:10;14.50;99.90
20204;DHT22;10261;49.010;12.034;2023-05-10T00:05:13;14.50;99.90
20204;DHT22;10261;49.010;12.034;2023-05-10T00:06:16;14.50;99.90
20204;DHT22;10261;49.010;12.034;2023-05-10T00:07:19;14.50;99.90
20204;DHT22;10261;49.010;12.034;2023-05-10T00:08:21;14.60;99.90
20204;DHT22;10261;49.010;12.034;2023-05-10T00:09:24;14.50;99.90
20204;DHT22;10261;49.010;12.034;2023-05-10T00:10:26;14.60;99.90
20204;DHT22;10261;49.010;12.034;2023-05-10T00:11:29;14.50;99.90
20204;DHT22;10261;49.010;12.034;2023-05-10T00:12:31;14.50;99.90
20204;DHT22;10261;49.010;12.034;2023-05-10T00:13:34;14.50;99.90
20204;DHT22;10261;49.010;12.034;2023-05-10T00:14:37;14.60;99.90
20204;DHT22;10261;49.010;12.034;2023-05-10T00:15:40;14.50;99.90
20204;DHT22;10261;49.010;12.034;2023-05-10T00:16:42;14.50;99.90
20204;DHT22;10261;49.010;12.034;2023-05-10T00:17:45;14.50;99.90
20204;DHT22;10261;49.010;12.034;2023-05-10T00:18:47;14.50;99.90
20204;DHT22;10261;49.010;12.034;2023-05-10T00:19:50;14.50;99.90
20204;DHT22;10261;49.010;12.034;2023-05-10T00:20:52;14.50;99.90
20204;DHT22;10261;49.010;12.034;2023-05-10T00:21:55;14.50;99.90
20204;DHT22;10261;49.010;12.034;2023-05-10T00:22:57;14.50;99.90
20204;DHT22;10261;49.010;12.034;2023-05-10T00:24:00;14.50;99.90
20204;DHT22;10261;49.010;12.034;2023-05-10T00:25:03;14.50;99.90
20204;DHT22;10261;49.010;12.034;2023-05-10T00:26:07;14.50;99.90
20204;DHT22;10261;49.010;12.034;2023-05-10T00:27:09;14.50;99.90
20204;DHT22;10261;49.010;12.034;2023-05-10T00:28:12;14.50;99.90
20204;DHT22;10261;49.010;12.034;2023-05-10T00:29:13;14.50;99.90
20204;DHT22;10261;49.010;12.034;2023-05-10T00:30:18;14.50;99.90
20204;DHT22;10261;49.010;12.034;2023-05-10T00:31:20;14.40;99.90
20204;DHT22;10261;49.010;12.034;2023-05-10T00:32:23;14.40;99.90
20204;DHT22;10261;49.010;12.034;2023-05-10T00:33:25;14.40;99.90
20204;DHT22;10261;49.010;12.034;2023-05-10T00:34:28;14.40;99.90
20204;DHT22;10261;49.010;12.034;2023-05-10T00:35:30;14.40;99.90
20204;DHT22;10261;49.010;12.034;2023-05-10T00:36:33;14.40;99.90
20204;DHT22;10261;49.010;12.034;2023-05-10T00:37:35;14.40;99.90
20204;DHT22;10261;49.010;12.034;2023-05-10T00:38:38;14.40;99.90
20204;DHT22;10261;49.010;12.034;2023-05-10T00:39:40;14.50;99.90
20204;DHT22;10261;49.010;12.034;2023-05-10T00:40:43;14.40;99.90
20204;DHT22;10261;49.010;12.034;2023-05-10T00:41:45;14.40;99.90
20204;DHT22;10261;49.010;12.034;2023-05-10T00:42:48;14.40;99.90
20204;DHT22;10261;49.010;12.034;2023-05-10T00:43:50;14.40;99.90
20204;DHT22;10261;49.010;12.034;2023-05-10T00:44:53;14.40;99.90
20204;DHT22;10261;49.010;12.034;2023-05-10T00:45:57;14.50;99.90
20204;DHT22;10261;49.010;12.034;2023-05-10T00:47:00;14.40;99.90
20204;DHT22;10261;49.010;12.034;2023-05-10T00:48:03;14.40;99.90
20204;DHT22;10261;49.010;12.034;2023-05-10T00:49:06;14.40;99.90
20204;DHT22;10261;49.010;12.034;2023-05-10T00:50:09;14.40;99.90
20204;DHT22;10261;49.010;12.034;2023-05-10T00:51:12;14.40;99.90
20204;DHT22;10261;49.010;12.034;2023-05-10T00:52:15;14.40;99.90
20204;DHT22;10261;49.010;12.034;2023-05-10T00:53:18;14.40;99.90
20204;DHT22;10261;49.010;12.034;2023-05-10T00:54:20;14.40;99.90
20204;DHT22;10261;49.010;12.034;2023-05-10T00:55:24;14.40;99.90
20204;DHT22;10261;49.010;12.034;2023-05-10T00:56:26;14.40;99.90
20204;DHT22;10261;49.010;12.034;2023-05-10T00:57:31;14.40;99.90
20204;DHT22;10261;49.010;12.034;2023-05-10T00:58:33;14.40;99.90
20204;DHT22;10261;49.010;12.034;2023-05-10T00:59:36;14.40;99.90
20204;DHT22;10261;49.010;12.034;2023-05-10T01:00:38;14.40;99.90
20204;DHT22;10261;49.010;12.034;2023-05-10T01:01:46;14.40;99.90
20204;DHT22;10261;49.010;12.034;2023-05-10T01:02:48;14.40;99.90
20204;DHT22;10261;49.010;12.034;2023-05-10T01:03:51;14.30;99.90
20204;DHT22;10261;49.010;12.034;2023-05-10T01:04:54;14.40;99.90
20204;DHT22;10261;49.010;12.034;2023-05-10T01:05:57;14.30;99.90
20204;DHT22;10261;49.010;12.034;2023-05-10T01:07:00;14.40;99.90
20204;DHT22;10261;49.010;12.034;2023-05-10T01:08:03;14.30;99.90
20204;DHT22;10261;49.010;12.034;2023-05-10T01:09:05;14.30;99.90
20204;DHT22;10261;49.010;12.034;2023-05-10T01:10:09;14.40;99.90
20204;DHT22;10261;49.010;12.034;2023-05-10T01:11:12;14.40;99.90
20204;DHT22;10261;49.010;12.034;2023-05-10T01:12:15;14.30;99.90
20204;DHT22;10261;49.010;12.034;2023-05-10T01:13:26;14.40;99.90
20204;DHT22;10261;49.010;12.034;2023-05-10T01:14:30;14.40;99.90
20204;DHT22;10261;49.010;12.034;2023-05-10T01:15:32;14.30;99.90
20204;DHT22;10261;49.010;12.034;2023-05-10T01:16:38;14.40;99.90
20204;DHT22;10261;49.010;12.034;2023-05-10T01:17:44;14.40;99.90
20204;DHT22;10261;49.010;12.034;2023-05-10T01:18:48;14.40;99.90
20204;DHT22;10261;49.010;12.034;2023-05-10T01:19:50;14.40;99.90
20204;DHT22;10261;49.010;12.034;2023-05-10T01:20:59;14.40;99.90
20204;DHT22;10261;49.010;12.034;2023-05-10T01:22:25;14.50;99.90
20204;DHT22;10261;49.010;12.034;2023-05-10T01:23:39;14.40;99.90
20204;DHT22;10261;49.010;12.034;2023-05-10T01:25:06;14.50;99.90
20204;DHT22;10261;49.010;12.034;2023-05-10T01:26:45;14.50;99.90
20204;DHT22;10261;49.010;12.034;2023-05-10T01:31:30;14.50;99.90
20204;DHT22;10261;49.010;12.034;2023-05-10T01:32:42;14.50;99.90
20204;DHT22;10261;49.010;12.034;2023-05-10T01:33:50;14.50;99.90
20204;DHT22;10261;49.010;12.034;2023-05-10T01:34:59;14.50;99.90
20204;DHT22;10261;49.010;12.034;2023-05-10T01:36:07;14.40;99.90
20204;DHT22;10261;49.010;12.034;2023-05-10T01:37:15;14.50;99.90
20204;DHT22;10261;49.010;12.034;2023-05-10T01:38:25;14.50;99.90
20204;DHT22;10261;49.010;12.034;2023-05-10T01:39:32;14.50;99.90
20204;DHT22;10261;49.010;12.034;2023-05-10T01:40:45;14.50;99.90
20204;DHT22;10261;49.010;12.034;2023-05-10T01:41:54;14.60;99.90
20204;DHT22;10261;49.010;12.034;2023-05-10T01:43:01;14.60;99.90
20204;DHT22;10261;49.010;12.034;2023-05-10T01:44:11;14.60;99.90
20204;DHT22;10261;49.010;12.034;2023-05-10T01:45:21;14.60;99.90
20204;DHT22;10261;49.010;12.034;2023-05-10T01:46:31;14.60;99.90
20204;DHT22;10261;49.010;12.034;2023-05-10T01:47:40;14.50;99.90
20204;DHT22;10261;49.010;12.034;2023-05-10T01:48:47;14.50;99.90
20204;DHT22;10261;49.010;12.034;2023-05-10T01:49:51;14.50;99.90
20204;DHT22;10261;49.010;12.034;2023-05-10T01:50:56;14.60;99.90
20204;DHT22;10261;49.010;12.034;2023-05-10T01:52:03;14.60;99.90
20204;DHT22;10261;49.010;12.034;2023-05-10T01:53:09;14.60;99.90
20204;DHT22;10261;49.010;12.034;2023-05-10T01:54:13;14.70;99.90
20204;DHT22;10261;49.010;12.034;2023-05-10T01:55:16;14.60;99.90
20204;DHT22;10261;49.010;12.034;2023-05-10T01:56:24;14.60;99.90
20204;DHT22;10261;49.010;12.034;2023-05-10T01:57:32;14.60;99.90
20204;DHT22;10261;49.010;12.034;2023-05-10T01:58:36;14.60;99.90
20204;DHT22;10261;49.010;12.034;2023-05-10T01:59:43;14.60;99.90
20204;DHT22;10261;49.010;12.034;2023-05-10T02:00:49;14.60;99.90
20204;DHT22;10261;49.010;12.034;2023-05-10T02:01:53;14.60;99.90
20204;DHT22;10261;49.010;12.034;2023-05-10T02:03:00;14.60;99.90
20204;DHT22;10261;49.010;12.034;2023-05-10T02:04:04;14.60;99.90
20204;DHT22;10261;49.010;12.034;2023-05-10T02:05:09;14.60;99.90
20204;DHT22;10261;49.010;12.034;2023-05-10T02:06:13;14.60;99.90
20204;DHT22;10261;49.010;12.034;2023-05-10T02:07:18;14.60;99.90
20204;DHT22;10261;49.010;12.034;2023-05-10T02:08:21;14.50;99.90
20204;DHT22;10261;49.010;12.034;2023-05-10T02:09:25;14.50;99.90
20204;DHT22;10261;49.010;12.034;2023-05-10T02:10:30;14.50;99.90
20204;DHT22;10261;49.010;12.034;2023-05-10T02:11:34;14.50;99.90
20204;DHT22;10261;49.010;12.034;2023-05-10T02:12:41;14.50;99.90
20204;DHT22;10261;49.010;12.034;2023-05-10T02:13:45;14.50;99.90
20204;DHT22;10261;49.010;12.034;2023-05-10T02:14:49;14.50;99.90
20204;DHT22;10261;49.010;12.034;2023-05-10T02:15:55;14.50;99.90
20204;DHT22;10261;49.010;12.034;2023-05-10T02:16:59;14.50;99.90
20204;DHT22;10261;49.010;12.034;2023-05-10T02:18:05;14.40;99.90
20204;DHT22;10261;49.010;12.034;2023-05-10T02:19:08;14.40;99.90
20204;DHT22;10261;49.010;12.034;2023-05-10T02:20:12;14.40;99.90
20204;DHT22;10261;49.010;12.034;2023-05-10T02:21:15;14.40;99.90
20204;DHT22;10261;49.010;12.034;2023-05-10T02:22:19;14.40;99.90
20204;DHT22;10261;49.010;12.034;2023-05-10T02:23:21;14.40;99.90
20204;DHT22;10261;49.010;12.034;2023-05-10T02:24:26;14.30;99.90
20204;DHT22;10261;49.010;12.034;2023-05-10T02:25:28;14.30;99.90
20204;DHT22;10261;49.010;12.034;2023-05-10T02:26:33;14.30;99.90
20204;DHT22;10261;49.010;12.034;2023-05-10T02:27:37;14.30;99.90
20204;DHT22;10261;49.010;12.034;2023-05-10T02:28:41;14.30;99.90
20204;DHT22;10261;49.010;12.034;2023-05-10T02:29:44;14.30;99.90
20204;DHT22;10261;49.010;12.034;2023-05-10T02:30:48;14.30;99.90
20204;DHT22;10261;49.010;12.034;2023-05-10T02:31:52;14.30;99.90
20204;DHT22;10261;49.010;12.034;2023-05-10T02:32:57;14.30;99.90
20204;DHT22;10261;49.010;12.034;2023-05-10T02:34:02;14.30;99.90
20204;DHT22;10261;49.010;12.034;2023-05-10T02:35:07;14.30;99.90
20204;DHT22;10261;49.010;12.034;2023-05-10T02:36:10;14.30;99.90
20204;DHT22;10261;49.010;12.034;2023-05-10T02:37:14;14.30;99.90
20204;DHT22;10261;49.010;12.034;2023-05-10T02:38:19;14.30;99.90
20204;DHT22;10261;49.010;12.034;2023-05-10T02:39:24;14.20;99.90
20204;DHT22;10261;49.010;12.034;2023-05-10T02:40:26;14.20;99.90
20204;DHT22;10261;49.010;12.034;2023-05-10T02:41:31;14.30;99.90
20204;DHT22;10261;49.010;12.034;2023-05-10T02:42:36;14.30;99.90
20204;DHT22;10261;49.010;12.034;2023-05-10T02:43:40;14.30;99.90
20204;DHT22;10261;49.010;12.034;2023-05-10T02:44:46;14.30;99.90
20204;DHT22;10261;49.010;12.034;2023-05-10T02:45:50;14.30;99.90
20204;DHT22;10261;49.010;12.034;2023-05-10T02:46:52;14.30;99.90
20204;DHT22;10261;49.010;12.034;2023-05-10T02:47:58;14.20;99.90
20204;DHT22;10261;49.010;12.034;2023-05-10T02:49:02;14.20;99.90
20204;DHT22;10261;49.010;12.034;2023-05-10T02:50:05;14.20;99.90
20204;DHT22;10261;49.010;12.034;2023-05-10T02:51:08;14.20;99.90
20204;DHT22;10261;49.010;12.034;2023-05-10T02:52:15;14.20;99.90
20204;DHT22;10261;49.010;12.034;2023-05-10T02:53:22;14.20;99.90
20204;DHT22;10261;49.010;12.034;2023-05-10T02:54:29;14.20;99.90
20204;DHT22;10261;49.010;12.034;2023-05-10T02:55:35;14.20;99.90
20204;DHT22;10261;49.010;12.034;2023-05-10T02:56:43;14.20;99.90
20204;DHT22;10261;49.010;12.034;2023-05-10T02:57:52;14.10;99.90
20204;DHT22;10261;49.010;12.034;2023-05-10T02:58:56;14.10;99.90
20204;DHT22;10261;49.010;12.034;2023-05-10T02:59:58;14.10;99.90
20204;DHT22;10261;49.010;12.034;2023-05-10T03:01:01;14.00;99.90
20204;DHT22;10261;49.010;12.034;2023-05-10T03:02:04;14.00;99.90
20204;DHT22;10261;49.010;12.034;2023-05-10T03:03:07;14.00;99.90
20204;DHT22;10261;49.010;12.034;2023-05-10T03:04:10;13.90;99.90
20204;DHT22;10261;49.010;12.034;2023-05-10T03:05:13;13.90;99.90
20204;DHT22;10261;49.010;12.034;2023-05-10T03:06:15;13.90;99.90
20204;DHT22;10261;49.010;12.034;2023-05-10T03:07:19;13.90;99.90
20204;DHT22;10261;49.010;12.034;2023-05-10T03:08:23;13.90;99.90
20204;DHT22;10261;49.010;12.034;2023-05-10T03:09:26;13.90;99.90
20204;DHT22;10261;49.010;12.034;2023-05-10T03:10:29;13.80;99.90
20204;DHT22;10261;49.010;12.034;2023-05-10T03:11:43;13.80;99.90
20204;DHT22;10261;49.010;12.034;2023-05-10T03:13:01;13.80;99.90
20204;DHT22;10261;49.010;12.034;2023-05-10T03:14:12;13.80;99.90
20204;DHT22;10261;49.010;12.034;2023-05-10T03:15:22;13.70;99.90
20204;DHT22;10261;49.010;12.034;2023-05-10T03:16:36;13.70;99.90
20204;DHT22;10261;49.010;12.034;2023-05-10T03:17:47;13.70;99.90
20204;DHT22;10261;49.010;12.034;2023-05-10T03:18:59;13.70;99.90
20204;DHT22;10261;49.010;12.034;2023-05-10T03:20:09;13.60;99.90
20204;DHT22;10261;49.010;12.034;2023-05-10T03:21:14;13.70;99.90
20204;DHT22;10261;49.010;12.034;2023-05-10T03:22:25;13.60;99.90
20204;DHT22;10261;49.010;12.034;2023-05-10T03:23:33;13.60;99.90
20204;DHT22;10261;49.010;12.034;2023-05-10T03:24:36;13.70;99.90
20204;DHT22;10261;49.010;12.034;2023-05-10T03:25:42;13.60;99.90
20204;DHT22;10261;49.010;12.034;2023-05-10T03:26:45;13.60;99.90
20204;DHT22;10261;49.010;12.034;2023-05-10T03:27:49;13.60;99.90
20204;DHT22;10261;49.010;12.034;2023-05-10T03:28:52;13.60;99.90
20204;DHT22;10261;49.010;12.034;2023-05-10T03:29:56;13.60;99.90
20204;DHT22;10261;49.010;12.034;2023-05-10T03:30:59;13.50;99.90
20204;DHT22;10261;49.010;12.034;2023-05-10T03:32:02;13.50;99.90
20204;DHT22;10261;49.010;12.034;2023-05-10T03:33:05;13.60;99.90
20204;DHT22;10261;49.010;12.034;2023-05-10T03:34:08;13.60;99.90
20204;DHT22;10261;49.010;12.034;2023-05-10T03:35:12;13.60;99.90
20204;DHT22;10261;49.010;12.034;2023-05-10T03:36:15;13.50;99.90
20204;DHT22;10261;49.010;12.034;2023-05-10T03:37:18;13.50;99.90
20204;DHT22;10261;49.010;12.034;2023-05-10T03:38:20;13.60;99.90
20204;DHT22;10261;49.010;12.034;2023-05-10T03:39:23;13.60;99.90
20204;DHT22;10261;49.010;12.034;2023-05-10T03:40:26;13.60;99.90
20204;DHT22;10261;49.010;12.034;2023-05-10T03:41:30;13.50;99.90
20204;DHT22;10261;49.010;12.034;2023-05-10T03:42:32;13.50;99.90
20204;DHT22;10261;49.010;12.034;2023-05-10T03:43:35;13.50;99.90
20204;DHT22;10261;49.010;12.034;2023-05-10T03:44:38;13.50;99.90
20204;DHT22;10261;49.010;12.034;2023-05-10T03:45:41;13.50;99.90
20204;DHT22;10261;49.010;12.034;2023-05-10T03:46:43;13.30;99.90
20204;DHT22;10261;49.010;12.034;2023-05-10T03:47:46;13.40;99.90
20204;DHT22;10261;49.010;12.034;2023-05-10T03:48:48;13.50;99.90
20204;DHT22;10261;49.010;12.034;2023-05-10T03:49:51;13.60;99.90
20204;DHT22;10261;49.010;12.034;2023-05-10T03:50:55;13.60;99.90
20204;DHT22;10261;49.010;12.034;2023-05-10T03:51:58;13.70;99.90
20204;DHT22;10261;49.010;12.034;2023-05-10T03:53:00;13.70;99.90
20204;DHT22;10261;49.010;12.034;2023-05-10T03:54:03;13.70;99.90
20204;DHT22;10261;49.010;12.034;2023-05-10T03:55:06;13.70;99.90
20204;DHT22;10261;49.010;12.034;2023-05-10T03:56:09;13.70;99.90
20204;DHT22;10261;49.010;12.034;2023-05-10T03:57:13;13.70;99.90
20204;DHT22;10261;49.010;12.034;2023-05-10T03:58:16;13.70;99.90
20204;DHT22;10261;49.010;12.034;2023-05-10T03:59:18;13.80;99.90
20204;DHT22;10261;49.010;12.034;2023-05-10T04:00:21;13.80;99.90
20204;DHT22;10261;49.010;12.034;2023-05-10T04:01:23;13.80;99.90
20204;DHT22;10261;49.010;12.034;2023-05-10T04:02:26;13.80;99.90
20204;DHT22;10261;49.010;12.034;2023-05-10T04:03:28;13.80;99.90
20204;DHT22;10261;49.010;12.034;2023-05-10T04:04:31;13.90;99.90
20204;DHT22;10261;49.010;12.034;2023-05-10T04:05:33;13.90;99.90
20204;DHT22;10261;49.010;12.034;2023-05-10T04:06:37;13.80;99.90
20204;DHT22;10261;49.010;12.034;2023-05-10T04:07:39;13.80;99.90
20204;DHT22;10261;49.010;12.034;2023-05-10T04:08:43;13.80;99.90
20204;DHT22;10261;49.010;12.034;2023-05-10T04:09:44;13.80;99.90
20204;DHT22;10261;49.010;12.034;2023-05-10T04:10:47;13.90;99.90
20204;DHT22;10261;49.010;12.034;2023-05-10T04:11:49;13.90;99.90
20204;DHT22;10261;49.010;12.034;2023-05-10T04:12:53;13.90;99.90
20204;DHT22;10261;49.010;12.034;2023-05-10T04:13:55;13.80;99.90
20204;DHT22;10261;49.010;12.034;2023-05-10T04:14:58;13.90;99.90
20204;DHT22;10261;49.010;12.034;2023-05-10T04:16:00;13.90;99.90
20204;DHT22;10261;49.010;12.034;2023-05-10T04:17:03;13.80;99.90
20204;DHT22;10261;49.010;12.034;2023-05-10T04:18:05;13.80;99.90
20204;DHT22;10261;49.010;12.034;2023-05-10T04:19:09;13.90;99.90
20204;DHT22;10261;49.010;12.034;2023-05-10T04:20:12;13.90;99.90
20204;DHT22;10261;49.010;12.034;2023-05-10T04:21:15;13.90;99.90
20204;DHT22;10261;49.010;12.034;2023-05-10T04:22:19;13.90;99.90
20204;DHT22;10261;49.010;12.034;2023-05-10T04:23:22;13.80;99.90
20204;DHT22;10261;49.010;12.034;2023-05-10T04:24:24;13.80;99.90
20204;DHT22;10261;49.010;12.034;2023-05-10T04:25:27;13.80;99.90
20204;DHT22;10261;49.010;12.034;2023-05-10T04:26:29;15.60;99.90
20204;DHT22;10261;49.010;12.034;2023-05-10T04:27:32;13.80;99.90
20204;DHT22;10261;49.010;12.034;2023-05-10T04:28:34;13.80;99.90
20204;DHT22;10261;49.010;12.034;2023-05-10T04:29:37;13.80;99.90
20204;DHT22;10261;49.010;12.034;2023-05-10T04:30:40;13.90;99.90
20204;DHT22;10261;49.010;12.034;2023-05-10T04:31:43;13.80;99.90
20204;DHT22;10261;49.010;12.034;2023-05-10T04:32:45;13.80;99.90
20204;DHT22;10261;49.010;12.034;2023-05-10T04:33:48;13.90;99.90
20204;DHT22;10261;49.010;12.034;2023-05-10T04:34:50;13.90;99.90
20204;DHT22;10261;49.010;12.034;2023-05-10T04:35:53;13.90;99.90
20204;DHT22;10261;49.010;12.034;2023-05-10T04:36:55;13.80;99.90
20204;DHT22;10261;49.010;12.034;2023-05-10T04:37:59;13.90;99.90
20204;DHT22;10261;49.010;12.034;2023-05-10T04:39:01;13.90;99.90
20204;DHT22;10261;49.010;12.034;2023-05-10T04:40:06;13.80;99.90
20204;DHT22;10261;49.010;12.034;2023-05-10T04:41:10;16.00;99.90
20204;DHT22;10261;49.010;12.034;2023-05-10T04:42:13;13.80;99.90
20204;DHT22;10261;49.010;12.034;2023-05-10T04:43:16;13.80;99.90
20204;DHT22;10261;49.010;12.034;2023-05-10T04:44:19;13.90;99.90
20204;DHT22;10261;49.010;12.034;2023-05-10T04:45:22;13.80;99.90
20204;DHT22;10261;49.010;12.034;2023-05-10T04:46:24;13.80;99.90
20204;DHT22;10261;49.010;12.034;2023-05-10T04:47:27;13.80;99.90
20204;DHT22;10261;49.010;12.034;2023-05-10T04:48:29;13.80;99.90
20204;DHT22;10261;49.010;12.034;2023-05-10T04:49:32;13.80;99.90
20204;DHT22;10261;49.010;12.034;2023-05-10T04:50:34;13.80;99.90
20204;DHT22;10261;49.010;12.034;2023-05-10T04:51:38;13.90;99.90
20204;DHT22;10261;49.010;12.034;2023-05-10T04:52:40;13.80;99.90
20204;DHT22;10261;49.010;12.034;2023-05-10T04:53:44;13.80;99.90
20204;DHT22;10261;49.010;12.034;2023-05-10T04:55:03;13.80;99.90
20204;DHT22;10261;49.010;12.034;2023-05-10T04:56:06;13.80;99.90
20204;DHT22;10261;49.010;12.034;2023-05-10T04:57:08;13.80;99.90
20204;DHT22;10261;49.010;12.034;2023-05-10T04:58:11;13.80;99.90
20204;DHT22;10261;49.010;12.034;2023-05-10T04:59:13;13.90;99.90
20204;DHT22;10261;49.010;12.034;2023-05-10T05:00:17;13.80;99.90
20204;DHT22;10261;49.010;12.034;2023-05-10T05:01:20;13.80;99.90
20204;DHT22;10261;49.010;12.034;2023-05-10T05:02:22;13.80;99.90
20204;DHT22;10261;49.010;12.034;2023-05-10T05:03:25;13.90;99.90
20204;DHT22;10261;49.010;12.034;2023-05-10T05:04:27;13.80;99.90
20204;DHT22;10261;49.010;12.034;2023-05-10T05:05:30;13.90;99.90
20204;DHT22;10261;49.010;12.034;2023-05-10T05:06:32;13.90;99.90
20204;DHT22;10261;49.010;12.034;2023-05-10T05:07:37;13.80;99.90
20204;DHT22;10261;49.010;12.034;2023-05-10T05:08:39;13.80;99.90
20204;DHT22;10261;49.010;12.034;2023-05-10T05:09:44;13.80;99.90
20204;DHT22;10261;49.010;12.034;2023-05-10T05:10:46;13.80;99.90
20204;DHT22;10261;49.010;12.034;2023-05-10T05:11:51;13.90;99.90
20204;DHT22;10261;49.010;12.034;2023-05-10T05:12:53;13.90;99.90
20204;DHT22;10261;49.010;12.034;2023-05-10T05:13:56;13.90;99.90
20204;DHT22;10261;49.010;12.034;2023-05-10T05:15:01;13.90;99.90
20204;DHT22;10261;49.010;12.034;2023-05-10T05:16:05;13.80;99.90
20204;DHT22;10261;49.010;12.034;2023-05-10T05:17:07;13.90;99.90
20204;DHT22;10261;49.010;12.034;2023-05-10T05:18:10;13.80;99.90
20204;DHT22;10261;49.010;12.034;2023-05-10T05:19:12;13.80;99.90
20204;DHT22;10261;49.010;12.034;2023-05-10T05:20:15;13.80;99.90
20204;DHT22;10261;49.010;12.034;2023-05-10T05:21:18;13.80;99.90
20204;DHT22;10261;49.010;12.034;2023-05-10T05:22:22;13.80;99.90
20204;DHT22;10261;49.010;12.034;2023-05-10T05:23:29;13.80;99.90
20204;DHT22;10261;49.010;12.034;2023-05-10T05:24:35;13.80;99.90
20204;DHT22;10261;49.010;12.034;2023-05-10T05:25:39;13.80;99.90
20204;DHT22;10261;49.010;12.034;2023-05-10T05:26:42;13.80;99.90
20204;DHT22;10261;49.010;12.034;2023-05-10T05:27:44;13.80;99.90
20204;DHT22;10261;49.010;12.034;2023-05-10T05:28:47;13.80;99.90
20204;DHT22;10261;49.010;12.034;2023-05-10T05:29:52;13.80;99.90
20204;DHT22;10261;49.010;12.034;2023-05-10T05:30:54;13.80;99.90
20204;DHT22;10261;49.010;12.034;2023-05-10T05:31:57;13.70;99.90
20204;DHT22;10261;49.010;12.034;2023-05-10T05:32:59;13.70;99.90
20204;DHT22;10261;49.010;12.034;2023-05-10T05:34:02;13.80;99.90
20204;DHT22;10261;49.010;12.034;2023-05-10T05:35:05;13.80;99.90
20204;DHT22;10261;49.010;12.034;2023-05-10T05:36:08;13.80;99.90
20204;DHT22;10261;49.010;12.034;2023-05-10T05:37:13;13.80;99.90
20204;DHT22;10261;49.010;12.034;2023-05-10T05:38:16;13.80;99.90
20204;DHT22;10261;49.010;12.034;2023-05-10T05:39:17;13.80;99.90
20204;DHT22;10261;49.010;12.034;2023-05-10T05:40:20;13.80;99.90
20204;DHT22;10261;49.010;12.034;2023-05-10T05:41:24;13.80;99.90
20204;DHT22;10261;49.010;12.034;2023-05-10T05:42:27;13.70;99.90
20204;DHT22;10261;49.010;12.034;2023-05-10T05:43:29;13.80;99.90
20204;DHT22;10261;49.010;12.034;2023-05-10T05:44:32;13.70;99.90
20204;DHT22;10261;49.010;12.034;2023-05-10T05:45:34;13.80;99.90
20204;DHT22;10261;49.010;12.034;2023-05-10T05:46:37;13.70;99.90
20204;DHT22;10261;49.010;12.034;2023-05-10T05:47:39;13.80;99.90
20204;DHT22;10261;49.010;12.034;2023-05-10T05:48:42;13.80;99.90
20204;DHT22;10261;49.010;12.034;2023-05-10T05:49:44;13.80;99.90
20204;DHT22;10261;49.010;12.034;2023-05-10T05:50:47;13.80;99.90
20204;DHT22;10261;49.010;12.034;2023-05-10T05:51:49;13.70;99.90
20204;DHT22;10261;49.010;12.034;2023-05-10T05:52:53;13.80;99.90
20204;DHT22;10261;49.010;12.034;2023-05-10T05:53:55;13.80;99.90
20204;DHT22;10261;49.010;12.034;2023-05-10T05:54:58;13.80;99.90
20204;DHT22;10261;49.010;12.034;2023-05-10T05:56:00;13.80;99.90
20204;DHT22;10261;49.010;12.034;2023-05-10T05:57:04;13.80;99.90
20204;DHT22;10261;49.010;12.034;2023-05-10T05:58:06;13.80;99.90
20204;DHT22;10261;49.010;12.034;2023-05-10T05:59:09;13.80;99.90
20204;DHT22;10261;49.010;12.034;2023-05-10T06:00:13;13.80;99.90
20204;DHT22;10261;49.010;12.034;2023-05-10T06:01:15;13.80;99.90
20204;DHT22;10261;49.010;12.034;2023-05-10T06:02:19;13.90;99.90
20204;DHT22;10261;49.010;12.034;2023-05-10T06:03:21;13.80;99.90
20204;DHT22;10261;49.010;12.034;2023-05-10T06:04:24;13.80;99.90
20204;DHT22;10261;49.010;12.034;2023-05-10T06:05:26;13.80;99.90
20204;DHT22;10261;49.010;12.034;2023-05-10T06:06:29;13.80;99.90
20204;DHT22;10261;49.010;12.034;2023-05-10T06:07:31;13.80;99.90
20204;DHT22;10261;49.010;12.034;2023-05-10T06:08:34;13.80;99.90
20204;DHT22;10261;49.010;12.034;2023-05-10T06:09:37;13.80;99.90
20204;DHT22;10261;49.010;12.034;2023-05-10T06:10:39;13.80;99.90
20204;DHT22;10261;49.010;12.034;2023-05-10T06:11:42;13.80;99.90
20204;DHT22;10261;49.010;12.034;2023-05-10T06:12:47;13.80;99.90
20204;DHT22;10261;49.010;12.034;2023-05-10T06:13:50;13.80;99.90
20204;DHT22;10261;49.010;12.034;2023-05-10T06:14:52;13.80;99.90
20204;DHT22;10261;49.010;12.034;2023-05-10T06:15:54;13.80;99.90
20204;DHT22;10261;49.010;12.034;2023-05-10T06:16:56;13.80;99.90
20204;DHT22;10261;49.010;12.034;2023-05-10T06:18:01;13.80;99.90
20204;DHT22;10261;49.010;12.034;2023-05-10T06:19:03;13.80;99.90
20204;DHT22;10261;49.010;12.034;2023-05-10T06:20:07;13.80;99.90
20204;DHT22;10261;49.010;12.034;2023-05-10T06:21:11;13.80;99.90
20204;DHT22;10261;49.010;12.034;2023-05-10T06:22:13;13.80;99.90
20204;DHT22;10261;49.010;12.034;2023-05-10T06:23:15;13.80;99.90
20204;DHT22;10261;49.010;12.034;2023-05-10T06:24:18;13.80;99.90
20204;DHT22;10261;49.010;12.034;2023-05-10T06:25:21;13.90;99.90
20204;DHT22;10261;49.010;12.034;2023-05-10T06:26:23;13.90;99.90
20204;DHT22;10261;49.010;12.034;2023-05-10T06:27:26;13.90;99.90
20204;DHT22;10261;49.010;12.034;2023-05-10T06:28:29;13.80;99.90
20204;DHT22;10261;49.010;12.034;2023-05-10T06:29:33;13.80;99.90
20204;DHT22;10261;49.010;12.034;2023-05-10T06:30:36;13.80;99.90
20204;DHT22;10261;49.010;12.034;2023-05-10T06:31:39;13.80;99.90
20204;DHT22;10261;49.010;12.034;2023-05-10T06:32:42;13.80;99.90
20204;DHT22;10261;49.010;12.034;2023-05-10T06:33:45;13.80;99.90
20204;DHT22;10261;49.010;12.034;2023-05-10T06:34:48;13.90;99.90
20204;DHT22;10261;49.010;12.034;2023-05-10T06:35:50;13.80;99.90
20204;DHT22;10261;49.010;12.034;2023-05-10T06:36:53;13.90;99.90
20204;DHT22;10261;49.010;12.034;2023-05-10T06:37:55;13.90;99.90
20204;DHT22;10261;49.010;12.034;2023-05-10T06:38:58;13.90;99.90
20204;DHT22;10261;49.010;12.034;2023-05-10T06:40:01;13.90;99.90
20204;DHT22;10261;49.010;12.034;2023-05-10T06:41:05;14.00;99.90
20204;DHT22;10261;49.010;12.034;2023-05-10T06:42:07;14.00;99.90